Time;durP1;ratioP1;P1;durP2;ratioP2;P2;SDS_P1;SDS_P2;PMS_P1;PMS_P2;Temp;Humidity;BMP_temperature;BMP_pressure;BME280_temperature;BME280_humidity;BME280_pressure;Samples;Min_cycle;Max_cycle;Signal;HPM_P1;HPM_P2
2023/07/12 00:00:23;;;;;;;4.70;3.87;;;20.70;99.90;;;;;;5010847;28;20555;-74
2023/07/12 00:02:50;;;;;;;7.20;4.30;;;20.60;99.90;;;;;;5011213;28;20460;-74
2023/07/12 00:05:18;;;;;;;5.37;4.83;;;20.60;99.90;;;;;;5011283;28;20466;-74
2023/07/12 00:07:46;;;;;;;4.20;3.90;;;20.60;99.90;;;;;;5011252;28;20491;-74
2023/07/12 00:10:20;;;;;;;6.40;5.90;;;20.60;99.90;;;;;;5011787;28;20454;-74
2023/07/12 00:12:47;;;;;;;3.60;3.33;;;20.60;99.90;;;;;;5011545;28;20809;-74
2023/07/12 00:15:18;;;;;;;5.07;3.27;;;20.60;99.90;;;;;;5011279;28;20475;-74
2023/07/12 00:17:45;;;;;;;3.60;3.40;;;20.50;99.90;;;;;;5011369;28;20451;-73
2023/07/12 00:20:19;;;;;;;3.80;3.50;;;20.50;99.90;;;;;;5011569;28;20446;-73
2023/07/12 00:22:46;;;;;;;3.73;3.43;;;20.50;99.90;;;;;;5011372;28;20461;-74
2023/07/12 00:25:13;;;;;;;6.67;4.30;;;20.50;99.90;;;;;;5011139;28;20474;-73
2023/07/12 00:27:41;;;;;;;4.40;4.00;;;20.50;99.90;;;;;;5010913;28;20484;-73
2023/07/12 00:30:12;;;;;;;3.80;3.40;;;20.50;99.90;;;;;;5011680;28;20831;-73
2023/07/12 00:32:40;;;;;;;4.80;3.60;;;20.50;99.90;;;;;;5012065;28;20538;-73
2023/07/12 00:35:07;;;;;;;4.00;3.70;;;20.50;99.90;;;;;;5014976;28;20478;-74
2023/07/12 00:37:34;;;;;;;5.30;3.93;;;20.50;99.90;;;;;;5014709;28;20549;-73
2023/07/12 00:40:01;;;;;;;4.23;3.83;;;20.40;99.90;;;;;;5014889;28;20452;-73
2023/07/12 00:42:34;;;;;;;5.20;4.70;;;20.40;99.90;;;;;;5014621;28;21168;-73
2023/07/12 00:45:04;;;;;;;5.47;5.07;;;20.50;99.90;;;;;;5014640;28;20491;-74
2023/07/12 00:47:33;;;;;;;5.33;4.60;;;20.40;99.90;;;;;;5014399;28;21031;-74
2023/07/12 00:50:01;;;;;;;6.23;5.07;;;20.40;99.90;;;;;;5014695;28;20453;-73
2023/07/12 00:52:30;;;;;;;5.43;4.87;;;20.40;99.90;;;;;;5014853;28;20447;-73
2023/07/12 00:54:59;;;;;;;4.73;4.37;;;20.40;99.90;;;;;;5014424;28;20554;-73
2023/07/12 00:57:28;;;;;;;7.70;7.00;;;20.40;99.90;;;;;;5014191;28;20513;-74
2023/07/12 00:59:59;;;;;;;7.40;6.70;;;20.40;99.90;;;;;;5014420;28;20454;-73
2023/07/12 01:02:27;;;;;;;8.20;7.43;;;20.50;99.90;;;;;;5014795;28;20463;-74
2023/07/12 01:04:57;;;;;;;5.97;5.40;;;20.50;99.90;;;;;;5014449;28;20999;-74
2023/07/12 01:07:26;;;;;;;7.43;6.73;;;20.50;99.90;;;;;;5014095;28;20540;-73
2023/07/12 01:09:53;;;;;;;6.97;6.40;;;20.50;99.90;;;;;;5014562;28;20459;-73
2023/07/12 01:12:20;;;;;;;8.73;6.50;;;20.60;99.90;;;;;;5014310;28;21027;-73
2023/07/12 01:14:47;;;;;;;6.60;6.00;;;20.60;99.90;;;;;;5014404;28;20946;-73
2023/07/12 01:17:14;;;;;;;8.80;7.37;;;20.60;99.90;;;;;;5014009;28;20455;-73
2023/07/12 01:19:42;;;;;;;8.63;6.30;;;20.70;99.90;;;;;;5014664;28;20464;-74
2023/07/12 01:22:11;;;;;;;8.70;6.70;;;20.60;99.90;;;;;;5032141;28;20452;-73
2023/07/12 01:24:38;;;;;;;6.37;5.77;;;20.70;99.90;;;;;;5028010;28;20480;-74
2023/07/12 01:27:14;;;;;;;5.93;5.43;;;20.70;99.90;;;;;;5033593;28;20827;-73
2023/07/12 01:29:42;;;;;;;6.87;6.33;;;20.70;99.90;;;;;;5033814;28;20499;-72
2023/07/12 01:32:09;;;;;;;6.67;6.17;;;20.70;99.90;;;;;;5033785;28;20553;-73
2023/07/12 01:34:36;;;;;;;6.27;5.70;;;20.70;99.90;;;;;;5033782;28;21014;-73
2023/07/12 01:37:05;;;;;;;5.73;5.13;;;20.80;99.90;;;;;;5033345;28;20452;-73
2023/07/12 01:39:33;;;;;;;5.70;5.30;;;20.80;99.90;;;;;;5033858;28;20482;-73
2023/07/12 01:42:00;;;;;;;6.47;5.90;;;20.80;99.90;;;;;;5033220;28;20453;-73
2023/07/12 01:44:27;;;;;;;6.33;5.83;;;20.80;99.90;;;;;;5033229;28;20517;-73
2023/07/12 01:46:54;;;;;;;5.77;5.33;;;20.90;99.90;;;;;;5033125;28;20461;-73
2023/07/12 01:49:21;;;;;;;5.93;5.53;;;20.90;99.90;;;;;;5033630;28;21168;-73
2023/07/12 01:51:50;;;;;;;5.67;5.27;;;20.90;99.90;;;;;;5033565;28;20461;-74
2023/07/12 01:54:17;;;;;;;5.73;5.33;;;20.90;99.90;;;;;;5033462;28;20509;-73
2023/07/12 01:56:45;;;;;;;5.33;4.90;;;20.90;99.90;;;;;;5032946;28;20874;-74
2023/07/12 01:59:12;;;;;;;5.10;4.80;;;20.90;99.90;;;;;;5033295;28;20535;-74
2023/07/12 02:01:39;;;;;;;4.50;4.10;;;20.90;99.90;;;;;;5033248;28;20883;-73
2023/07/12 02:04:06;;;;;;;5.83;5.33;;;20.90;99.90;;;;;;5032962;28;20480;-73
2023/07/12 02:06:33;;;;;;;5.60;5.20;;;20.90;99.90;;;;;;5032908;28;20455;-73
2023/07/12 02:08:59;;;;;;;6.80;6.10;;;20.90;99.90;;;;;;5032741;28;20995;-73
2023/07/12 02:11:26;;;;;;;4.70;4.33;;;20.80;99.90;;;;;;5033137;28;20452;-73
2023/07/12 02:13:54;;;;;;;5.37;4.90;;;20.90;99.90;;;;;;5033004;28;20533;-73
2023/07/12 02:16:20;;;;;;;4.90;4.50;;;20.90;99.90;;;;;;5032831;28;20989;-73
2023/07/12 02:18:47;;;;;;;5.10;4.70;;;20.80;99.90;;;;;;5032741;28;20522;-73
2023/07/12 02:21:14;;;;;;;4.77;4.47;;;20.80;99.90;;;;;;5033163;28;20213;-73
2023/07/12 02:23:41;;;;;;;6.07;5.07;;;20.80;99.90;;;;;;5032736;28;20510;-73
2023/07/12 02:26:07;;;;;;;5.67;5.00;;;20.80;99.90;;;;;;5032588;28;20939;-73
2023/07/12 02:28:34;;;;;;;5.97;4.90;;;20.80;99.90;;;;;;5032680;28;20492;-72
2023/07/12 02:31:20;;;;;;;4.73;4.40;;;20.80;99.90;;;;;;5032657;28;20540;-73
2023/07/12 02:33:47;;;;;;;5.20;4.70;;;20.80;99.90;;;;;;5032628;28;20481;-73
2023/07/12 02:36:14;;;;;;;4.33;4.03;;;20.70;99.90;;;;;;5032036;28;20457;-73
2023/07/12 02:38:41;;;;;;;4.60;4.20;;;20.70;99.90;;;;;;5032667;28;20453;-73
2023/07/12 02:41:08;;;;;;;5.03;4.50;;;20.70;99.90;;;;;;5032531;28;20483;-73
2023/07/12 02:43:35;;;;;;;5.13;4.63;;;20.70;99.90;;;;;;5032066;28;20861;-73
2023/07/12 02:46:03;;;;;;;5.70;5.20;;;20.70;99.90;;;;;;5031938;28;20546;-72
2023/07/12 02:48:31;;;;;;;4.50;4.10;;;20.60;99.90;;;;;;5032140;28;20491;-72
2023/07/12 02:50:58;;;;;;;5.30;4.80;;;20.60;99.90;;;;;;5032380;28;20454;-73
2023/07/12 02:53:24;;;;;;;5.40;5.00;;;20.60;99.90;;;;;;5031958;28;20466;-73
2023/07/12 02:55:52;;;;;;;5.93;4.70;;;20.60;99.90;;;;;;5031416;28;20970;-72
2023/07/12 02:58:19;;;;;;;6.13;4.80;;;20.60;99.90;;;;;;5032065;28;20543;-72
2023/07/12 03:00:47;;;;;;;5.30;4.30;;;20.60;99.90;;;;;;5031977;28;20450;-72
2023/07/12 03:03:14;;;;;;;3.50;3.20;;;20.60;99.90;;;;;;5032260;28;20453;-72
2023/07/12 03:05:42;;;;;;;5.83;5.23;;;20.50;99.90;;;;;;5032143;28;20973;-73
2023/07/12 03:08:09;;;;;;;5.10;4.70;;;20.50;99.90;;;;;;5031736;28;20478;-72
2023/07/12 03:10:37;;;;;;;4.87;4.47;;;20.50;99.90;;;;;;5031854;28;20547;-73
2023/07/12 03:13:04;;;;;;;4.33;3.97;;;20.50;99.90;;;;;;5031780;28;20459;-73
2023/07/12 03:15:31;;;;;;;4.67;4.37;;;20.50;99.90;;;;;;5030450;28;20506;-72
2023/07/12 03:17:58;;;;;;;5.50;5.00;;;20.40;99.90;;;;;;5031434;28;20454;-73
2023/07/12 03:20:25;;;;;;;5.40;4.90;;;20.40;99.90;;;;;;5031893;28;20458;-72
2023/07/12 03:22:53;;;;;;;4.53;4.23;;;20.40;99.90;;;;;;5031804;28;20459;-72
2023/07/12 03:25:20;;;;;;;4.43;4.03;;;20.40;99.90;;;;;;5031800;28;20827;-72
2023/07/12 03:27:48;;;;;;;4.07;3.77;;;20.40;99.90;;;;;;5031243;28;20544;-72
2023/07/12 03:30:15;;;;;;;7.03;4.20;;;20.30;99.90;;;;;;5031622;28;20521;-72
2023/07/12 03:32:42;;;;;;;4.20;3.90;;;20.30;99.90;;;;;;5031419;28;20847;-72
2023/07/12 03:35:09;;;;;;;4.20;3.90;;;20.30;99.90;;;;;;5031548;28;20976;-72
2023/07/12 03:37:36;;;;;;;4.57;4.17;;;20.30;99.90;;;;;;5031579;28;20464;-71
2023/07/12 03:40:07;;;;;;;4.13;3.73;;;20.30;99.90;;;;;;5031257;28;20450;-72
2023/07/12 03:42:34;;;;;;;4.70;4.30;;;20.30;99.90;;;;;;5030873;28;20464;-71
2023/07/12 03:45:01;;;;;;;6.10;4.20;;;20.20;99.90;;;;;;5031119;28;20477;-73
2023/07/12 03:47:28;;;;;;;7.33;5.00;;;20.20;99.90;;;;;;5031029;28;20958;-72
2023/07/12 03:49:55;;;;;;;6.80;4.33;;;20.20;99.90;;;;;;5031544;28;20489;-72
2023/07/12 03:52:22;;;;;;;4.83;4.43;;;20.20;99.90;;;;;;5031256;28;20451;-71
2023/07/12 03:54:49;;;;;;;5.10;4.60;;;20.20;99.90;;;;;;5025343;28;20554;-72
2023/07/12 03:57:17;;;;;;;10.70;5.07;;;20.20;99.90;;;;;;5031108;28;20457;-71
2023/07/12 03:59:44;;;;;;;5.37;4.97;;;20.20;99.90;;;;;;5031378;28;20454;-72
2023/07/12 04:02:11;;;;;;;6.40;5.23;;;20.20;99.90;;;;;;5029428;28;20453;-72
2023/07/12 04:04:38;;;;;;;5.23;4.83;;;20.20;99.90;;;;;;5031110;28;20470;-72
2023/07/12 04:07:05;;;;;;;4.40;4.00;;;20.20;99.90;;;;;;5026717;28;20525;-71
2023/07/12 04:09:32;;;;;;;4.67;4.23;;;20.20;99.90;;;;;;5034828;28;20482;-72
2023/07/12 04:11:59;;;;;;;7.83;5.80;;;20.20;99.90;;;;;;5035371;28;20540;-71
2023/07/12 04:14:27;;;;;;;7.63;5.50;;;20.20;99.90;;;;;;5027949;28;21039;-72
2023/07/12 04:16:53;;;;;;;4.00;3.60;;;20.20;99.90;;;;;;5018540;28;20540;-71
2023/07/12 04:19:20;;;;;;;4.80;4.40;;;20.20;99.90;;;;;;5035236;28;20446;-72
2023/07/12 04:21:47;;;;;;;6.43;5.50;;;20.20;99.90;;;;;;5035210;28;20892;-72
2023/07/12 04:24:14;;;;;;;7.80;7.10;;;20.20;99.90;;;;;;5028485;28;20560;-72
2023/07/12 04:26:41;;;;;;;7.50;6.90;;;20.20;99.90;;;;;;5032872;28;20451;-72
2023/07/12 04:29:08;;;;;;;9.47;7.40;;;20.30;99.90;;;;;;5034777;28;20480;-72
2023/07/12 04:31:36;;;;;;;6.60;5.97;;;20.30;99.90;;;;;;5034866;28;20446;-71
2023/07/12 04:34:03;;;;;;;6.50;6.00;;;20.30;99.90;;;;;;5034736;28;21080;-71
2023/07/12 04:36:30;;;;;;;5.50;5.10;;;20.30;99.90;;;;;;5034404;28;20960;-72
2023/07/12 04:38:57;;;;;;;6.50;5.37;;;20.40;99.90;;;;;;5034884;28;20454;-72
2023/07/12 04:41:24;;;;;;;5.97;5.47;;;20.40;99.90;;;;;;5034917;28;20834;-71
2023/07/12 04:43:51;;;;;;;5.37;4.97;;;20.50;99.90;;;;;;5034497;28;20863;-71
2023/07/12 04:46:18;;;;;;;6.00;5.13;;;20.50;99.90;;;;;;5030442;28;20453;-70
2023/07/12 04:48:46;;;;;;;5.57;5.10;;;20.60;99.90;;;;;;5034345;28;20475;-72
2023/07/12 04:51:13;;;;;;;5.53;5.03;;;20.60;99.90;;;;;;5034456;28;20544;-71
2023/07/12 04:53:41;;;;;;;5.53;4.90;;;20.70;99.90;;;;;;5034545;28;21035;-72
2023/07/12 04:56:08;;;;;;;5.00;4.67;;;20.70;99.90;;;;;;5034362;28;20557;-72
2023/07/12 04:58:35;;;;;;;4.50;4.20;;;20.70;99.90;;;;;;5034235;28;20456;-72
2023/07/12 05:01:02;;;;;;;4.40;3.30;;;20.70;99.90;;;;;;5034169;28;20465;-71
2023/07/12 05:03:29;;;;;;;5.10;4.60;;;20.70;99.90;;;;;;5033627;28;20474;-71
2023/07/12 05:05:59;;;;;;;4.67;4.30;;;20.80;99.90;;;;;;5014257;28;20451;-71
2023/07/12 05:08:26;;;;;;;4.07;3.77;;;20.80;99.90;;;;;;5014490;28;20545;-70
2023/07/12 05:10:58;;;;;;;4.87;4.40;;;20.80;99.90;;;;;;5014267;28;20971;-71
2023/07/12 05:13:25;;;;;;;4.30;3.00;;;20.90;99.90;;;;;;5014117;28;20999;-71
2023/07/12 05:15:53;;;;;;;4.33;3.90;;;21.00;99.90;;;;;;5014112;28;20702;-71
2023/07/12 05:18:20;;;;;;;8.13;3.97;;;21.00;99.90;;;;;;5013461;28;20456;-71
2023/07/12 05:20:48;;;;;;;5.90;5.50;;;21.10;99.90;;;;;;5014159;28;20452;-71
2023/07/12 05:23:16;;;;;;;4.67;3.80;;;21.20;99.90;;;;;;5014298;28;20825;-70
2023/07/12 05:25:48;;;;;;;3.83;3.40;;;21.20;99.90;;;;;;5014273;28;20810;-71
2023/07/12 05:28:15;;;;;;;5.17;4.20;;;21.30;99.90;;;;;;5014025;28;20540;-72
2023/07/12 05:30:42;;;;;;;4.20;3.43;;;21.40;99.90;;;;;;5013829;28;20623;-71
2023/07/12 05:33:09;;;;;;;3.80;3.50;;;21.50;99.90;;;;;;5019309;28;20451;-70
2023/07/12 05:35:36;;;;;;;6.47;3.60;;;21.50;99.90;;;;;;5033669;28;20477;-70
2023/07/12 05:38:03;;;;;;;4.70;3.40;;;21.60;99.90;;;;;;5033455;28;20961;-70
2023/07/12 05:40:32;;;;;;;3.13;2.83;;;21.60;99.90;;;;;;5033846;28;20491;-70
2023/07/12 05:43:00;;;;;;;4.40;3.30;;;21.60;99.90;;;;;;5033457;28;20491;-71
2023/07/12 05:45:27;;;;;;;4.57;4.10;;;21.70;99.90;;;;;;5033413;28;20454;-69
2023/07/12 05:47:54;;;;;;;5.10;3.30;;;21.70;99.90;;;;;;5033109;28;20902;-70
2023/07/12 05:50:22;;;;;;;3.50;3.30;;;21.80;99.90;;;;;;5033658;28;20492;-71
2023/07/12 05:52:49;;;;;;;6.07;5.50;;;21.80;99.90;;;;;;5033433;28;20460;-71
2023/07/12 05:55:18;;;;;;;3.90;3.50;;;22.00;99.90;;;;;;5033194;28;20480;-71
2023/07/12 05:57:48;;;;;;;5.80;4.83;;;22.00;99.90;;;;;;5032623;28;20475;-70
2023/07/12 06:00:17;;;;;;;5.40;3.33;;;22.10;99.90;;;;;;5023690;28;20439;-69
2023/07/12 06:02:44;;;;;;;4.00;3.70;;;22.10;99.90;;;;;;4994794;28;20455;-70
2023/07/12 06:05:11;;;;;;;4.77;3.97;;;22.10;99.90;;;;;;5000606;28;20593;-69
2023/07/12 06:07:38;;;;;;;5.03;4.47;;;22.10;99.90;;;;;;5012967;28;20532;-70
2023/07/12 06:10:06;;;;;;;4.43;4.03;;;22.20;99.90;;;;;;5013223;28;20485;-68
2023/07/12 06:12:32;;;;;;;9.67;4.37;;;22.20;99.90;;;;;;5005011;28;20451;-68
2023/07/12 06:15:01;;;;;;;4.97;4.57;;;22.20;99.90;;;;;;4993617;28;20561;-67
2023/07/12 06:17:29;;;;;;;10.97;4.73;;;22.30;99.90;;;;;;4995815;28;20451;-66
2023/07/12 06:19:56;;;;;;;4.93;4.47;;;22.40;99.90;;;;;;4993369;28;20447;-68
2023/07/12 06:22:22;;;;;;;6.17;5.00;;;22.40;99.90;;;;;;4993577;28;20455;-68
2023/07/12 06:24:49;;;;;;;5.57;5.07;;;22.50;99.90;;;;;;4993286;28;20475;-67
2023/07/12 06:27:16;;;;;;;5.60;4.60;;;22.50;99.90;;;;;;4993393;28;20451;-68
2023/07/12 06:29:43;;;;;;;9.50;5.03;;;22.50;99.90;;;;;;5001103;28;20865;-68
2023/07/12 06:32:12;;;;;;;5.40;4.90;;;22.50;99.90;;;;;;5009597;28;20442;-67
2023/07/12 06:34:39;;;;;;;5.30;4.67;;;22.60;99.90;;;;;;5012663;28;20468;-67
2023/07/12 06:37:08;;;;;;;8.67;5.03;;;22.60;99.90;;;;;;5012476;28;20843;-67
2023/07/12 06:39:35;;;;;;;6.87;6.07;;;22.60;99.90;;;;;;5012866;28;20529;-67
2023/07/12 06:42:02;;;;;;;6.20;5.60;;;22.60;99.90;;;;;;5012831;28;20451;-68
2023/07/12 06:44:29;;;;;;;7.23;5.80;;;22.60;99.90;;;;;;5012585;28;20481;-67
2023/07/12 06:46:55;;;;;;;5.63;4.87;;;22.60;99.90;;;;;;5012391;28;20833;-67
2023/07/12 06:49:23;;;;;;;5.60;5.20;;;22.60;99.90;;;;;;5012564;28;20482;-67
2023/07/12 06:51:50;;;;;;;6.70;5.50;;;22.60;99.90;;;;;;5012491;28;20460;-67
2023/07/12 06:54:18;;;;;;;6.20;5.67;;;22.60;99.90;;;;;;5009442;28;21146;-68
2023/07/12 06:56:46;;;;;;;5.53;5.07;;;22.70;99.90;;;;;;5002170;28;20477;-67
2023/07/12 06:59:13;;;;;;;8.30;5.87;;;22.60;99.90;;;;;;5003352;28;20451;-68
2023/07/12 07:01:40;;;;;;;7.97;6.33;;;22.70;99.90;;;;;;5001416;28;20474;-68
2023/07/12 07:04:06;;;;;;;6.70;5.50;;;22.80;99.90;;;;;;5001948;28;20476;-68
2023/07/12 07:06:35;;;;;;;6.67;6.07;;;22.80;99.90;;;;;;5002646;28;20482;-68
2023/07/12 07:09:01;;;;;;;7.13;6.23;;;22.80;99.90;;;;;;5004672;28;20460;-68
2023/07/12 07:11:28;;;;;;;6.83;6.23;;;22.90;99.90;;;;;;5016996;28;20871;-69
2023/07/12 07:13:55;;;;;;;6.63;5.97;;;23.00;99.90;;;;;;5019280;28;20865;-67
2023/07/12 07:16:23;;;;;;;6.67;5.90;;;23.10;99.90;;;;;;5023605;28;20449;-69
2023/07/12 07:18:50;;;;;;;7.37;6.67;;;23.10;99.90;;;;;;5019228;28;20449;-68
2023/07/12 07:21:17;;;;;;;7.10;6.40;;;23.20;99.90;;;;;;5026013;28;21099;-68
2023/07/12 07:23:46;;;;;;;6.83;6.23;;;23.20;99.90;;;;;;5031362;28;20476;-68
2023/07/12 07:26:13;;;;;;;7.10;6.57;;;23.20;99.90;;;;;;5029394;28;20459;-69
2023/07/12 07:28:41;;;;;;;6.73;6.23;;;23.30;99.90;;;;;;5011536;28;20450;-68
2023/07/12 07:31:08;;;;;;;7.23;6.03;;;23.30;99.90;;;;;;5010722;28;20486;-69
2023/07/12 07:33:37;;;;;;;7.63;7.03;;;23.30;99.90;;;;;;5011233;28;20565;-70
2023/07/12 07:36:06;;;;;;;8.23;6.87;;;23.40;99.90;;;;;;5010955;28;20450;-69
2023/07/12 07:38:33;;;;;;;6.90;6.40;;;23.40;99.90;;;;;;5011278;28;20893;-69
2023/07/12 07:41:05;;;;;;;7.30;6.70;;;23.50;99.90;;;;;;5011264;28;20450;-69
2023/07/12 07:43:32;;;;;;;9.13;7.67;;;23.50;99.90;;;;;;5011098;28;20488;-68
2023/07/12 07:45:59;;;;;;;7.63;6.80;;;23.60;99.90;;;;;;5010766;28;20538;-68
2023/07/12 07:48:26;;;;;;;7.80;7.00;;;23.60;99.90;;;;;;5011271;28;20454;-68
2023/07/12 07:50:53;;;;;;;9.50;8.70;;;23.80;99.90;;;;;;5011209;28;20488;-69
2023/07/12 07:53:20;;;;;;;8.47;7.87;;;23.90;99.90;;;;;;4993196;28;20471;-69
2023/07/12 07:55:47;;;;;;;9.13;7.70;;;24.10;99.90;;;;;;4990984;28;20827;-68
2023/07/12 07:58:15;;;;;;;7.20;6.70;;;24.30;99.90;;;;;;4991203;28;20455;-68
2023/07/12 08:00:42;;;;;;;8.20;7.60;;;24.50;99.90;;;;;;4991298;28;20826;-71
2023/07/12 08:03:11;;;;;;;8.07;7.37;;;24.70;99.90;;;;;;4990816;28;20460;-69
2023/07/12 08:05:38;;;;;;;9.33;7.97;;;25.00;99.90;;;;;;4991600;28;20556;-69
2023/07/12 08:08:05;;;;;;;9.00;8.10;;;25.20;99.90;;;;;;4991188;28;20457;-69
2023/07/12 08:10:33;;;;;;;8.30;7.70;;;25.40;99.90;;;;;;4991310;28;20481;-69
2023/07/12 08:13:00;;;;;;;9.30;8.60;;;25.40;99.90;;;;;;5023389;28;20462;-70
2023/07/12 08:15:28;;;;;;;9.93;9.17;;;25.50;99.90;;;;;;5030923;28;20451;-69
2023/07/12 08:17:55;;;;;;;8.87;8.27;;;25.50;99.90;;;;;;5030433;28;20445;-69
2023/07/12 08:20:24;;;;;;;8.13;7.33;;;25.50;99.90;;;;;;5024159;28;20533;-68
2023/07/12 08:22:52;;;;;;;9.73;8.87;;;25.50;99.90;;;;;;5010253;28;21051;-70
2023/07/12 08:25:19;;;;;;;8.33;7.63;;;25.40;99.90;;;;;;5010048;28;20849;-70
2023/07/12 08:27:46;;;;;;;8.37;7.70;;;25.40;99.90;;;;;;5010084;28;20897;-72
2023/07/12 08:30:13;;;;;;;9.27;8.57;;;25.50;99.90;;;;;;5010248;28;20527;-70
2023/07/12 08:32:42;;;;;;;8.83;7.73;;;25.50;99.90;;;;;;5010128;28;20449;-70
2023/07/12 08:35:11;;;;;;;12.53;10.03;;;25.40;99.90;;;;;;5010566;28;20507;-72
2023/07/12 08:37:38;;;;;;;8.03;7.40;;;25.30;99.90;;;;;;5009776;28;20542;-70
2023/07/12 08:40:06;;;;;;;9.50;8.70;;;25.50;99.90;;;;;;5010630;28;20476;-68
2023/07/12 08:42:38;;;;;;;8.83;8.07;;;25.50;99.90;;;;;;5010168;28;20449;-67
2023/07/12 08:45:21;;;;;;;9.43;8.80;;;25.60;99.90;;;;;;5010353;28;20465;-70
2023/07/12 08:47:51;;;;;;;8.13;7.43;;;25.80;99.90;;;;;;5009905;28;20475;-67
2023/07/12 08:50:18;;;;;;;8.40;7.70;;;25.90;99.90;;;;;;5010159;28;21039;-68
2023/07/12 08:52:46;;;;;;;8.37;7.77;;;26.20;99.90;;;;;;5010289;28;20468;-68
2023/07/12 08:55:18;;;;;;;9.97;9.27;;;26.40;99.90;;;;;;5013135;28;20494;-67
2023/07/12 08:57:45;;;;;;;9.07;8.37;;;26.40;99.90;;;;;;5013513;28;20463;-68
2023/07/12 09:00:18;;;;;;;9.67;8.83;;;26.30;99.90;;;;;;5013690;28;20453;-69
2023/07/12 09:02:45;;;;;;;9.43;8.50;;;26.40;99.90;;;;;;5013487;28;20832;-69
2023/07/12 09:05:15;;;;;;;9.43;8.70;;;26.40;99.90;;;;;;5013524;28;20988;-69
2023/07/12 09:07:53;;;;;;;8.90;8.23;;;26.60;99.90;;;;;;5013210;28;20448;-69
2023/07/12 09:10:33;;;;;;;9.73;9.03;;;26.80;99.90;;;;;;5013275;28;20490;-68
2023/07/12 09:13:01;;;;;;;9.07;8.37;;;26.90;99.90;;;;;;5013163;28;20450;-71
2023/07/12 09:15:34;;;;;;;9.00;8.20;;;27.20;99.90;;;;;;5013252;28;20552;-70
2023/07/12 09:18:05;;;;;;;8.70;7.80;;;27.30;99.50;;;;;;5013363;28;20451;-68
2023/07/12 09:20:38;;;;;;;8.60;8.00;;;27.50;98.80;;;;;;5013408;28;20453;-69
2023/07/12 09:23:07;;;;;;;8.23;7.47;;;27.60;99.00;;;;;;5013402;28;20460;-69
2023/07/12 09:25:37;;;;;;;8.27;7.57;;;27.80;98.60;;;;;;5013204;28;20457;-68
2023/07/12 09:28:05;;;;;;;8.93;8.33;;;28.00;98.20;;;;;;5013430;28;20460;-68
2023/07/12 09:30:33;;;;;;;9.43;8.53;;;28.10;95.50;;;;;;5013341;28;20516;-67
2023/07/12 09:33:04;;;;;;;10.87;8.17;;;28.10;95.50;;;;;;5013273;28;20465;-68
2023/07/12 09:35:40;;;;;;;9.33;8.50;;;27.90;95.90;;;;;;5013043;28;20541;-68
2023/07/12 09:38:12;;;;;;;9.37;8.53;;;27.80;96.00;;;;;;5012782;28;21040;-69
2023/07/12 09:40:42;;;;;;;10.33;9.30;;;27.50;96.00;;;;;;5012650;28;20965;-68
2023/07/12 09:43:17;;;;;;;8.93;8.20;;;27.40;95.30;;;;;;5012741;28;20474;-68
2023/07/12 09:45:51;;;;;;;9.20;8.37;;;27.20;97.40;;;;;;5013179;28;20459;-68
2023/07/12 09:48:30;;;;;;;9.57;8.83;;;27.10;97.30;;;;;;5013145;28;20451;-68
2023/07/12 09:51:13;;;;;;;9.50;8.80;;;26.90;96.90;;;;;;5013177;28;20493;-68
2023/07/12 09:53:45;;;;;;;9.93;9.27;;;26.90;96.70;;;;;;5013107;28;20495;-68
2023/07/12 09:56:23;;;;;;;10.53;9.73;;;26.70;97.70;;;;;;5013029;28;20454;-68
2023/07/12 09:59:00;;;;;;;9.83;9.13;;;26.60;97.90;;;;;;5012785;28;20452;-67
2023/07/12 10:01:38;;;;;;;11.10;10.00;;;26.60;98.00;;;;;;5013146;28;20451;-69
2023/07/12 10:04:30;;;;;;;10.47;9.50;;;26.70;97.80;;;;;;5013143;28;20469;-67
2023/07/12 10:06:59;;;;;;;10.47;9.77;;;26.70;97.70;;;;;;5012491;28;20531;-67
2023/07/12 10:09:30;;;;;;;9.27;8.67;;;26.80;97.60;;;;;;5012742;28;20546;-68
2023/07/12 10:12:04;;;;;;;10.33;9.57;;;26.90;97.80;;;;;;5012952;28;20576;-68
2023/07/12 10:14:34;;;;;;;9.20;8.60;;;26.80;97.30;;;;;;5012856;28;20825;-68
2023/07/12 10:17:02;;;;;;;10.33;9.43;;;26.80;97.00;;;;;;5012385;28;21027;-68
2023/07/12 10:19:33;;;;;;;10.43;9.63;;;26.80;96.70;;;;;;5012578;28;21014;-68
2023/07/12 10:22:05;;;;;;;9.90;8.97;;;27.00;97.00;;;;;;5012543;28;20457;-68
2023/07/12 10:24:36;;;;;;;11.23;9.60;;;27.20;97.40;;;;;;5012784;28;21010;-68
2023/07/12 10:27:11;;;;;;;9.03;8.43;;;27.40;97.40;;;;;;5012366;28;20457;-68
2023/07/12 10:29:44;;;;;;;9.00;8.33;;;27.50;96.80;;;;;;5012476;28;20792;-68
2023/07/12 10:32:21;;;;;;;9.83;9.03;;;27.50;96.80;;;;;;5012167;28;20483;-68
2023/07/12 10:34:55;;;;;;;9.93;9.23;;;27.50;96.60;;;;;;5012204;28;20560;-68
2023/07/12 10:37:30;;;;;;;11.27;10.27;;;27.50;95.80;;;;;;5010137;28;20451;-69
2023/07/12 10:39:57;;;;;;;8.90;8.40;;;27.40;94.70;;;;;;5012146;28;20921;-69
2023/07/12 10:42:30;;;;;;;10.23;9.47;;;27.30;95.60;;;;;;5011856;28;20447;-69
2023/07/12 10:45:00;;;;;;;9.23;8.63;;;27.30;95.00;;;;;;5011651;28;20492;-71
2023/07/12 10:47:32;;;;;;;9.50;8.90;;;27.30;95.50;;;;;;5012193;28;20553;-69
2023/07/12 10:50:02;;;;;;;9.67;9.00;;;27.40;95.20;;;;;;5011715;28;20504;-69
2023/07/12 10:52:33;;;;;;;10.77;10.07;;;27.50;95.40;;;;;;5011545;28;20905;-69
2023/07/12 10:55:20;;;;;;;9.23;8.60;;;27.50;95.30;;;;;;5011540;28;20501;-69
2023/07/12 10:57:49;;;;;;;9.50;8.70;;;27.60;95.80;;;;;;5010506;28;20836;-70
2023/07/12 11:00:30;;;;;;;9.10;8.40;;;27.60;93.80;;;;;;5011409;28;20465;-68
2023/07/12 11:03:03;;;;;;;9.27;8.67;;;27.70;93.20;;;;;;5011565;28;20935;-68
2023/07/12 11:05:43;;;;;;;9.17;8.30;;;27.70;93.00;;;;;;5011534;28;20448;-69
2023/07/12 11:08:37;;;;;;;10.23;9.20;;;27.90;92.90;;;;;;5011379;28;20451;-70
2023/07/12 11:11:45;;;;;;;8.63;7.97;;;28.00;93.70;;;;;;5011338;28;21255;-68
2023/07/12 11:14:45;;;;;;;9.37;8.67;;;28.20;93.30;;;;;;5011082;28;20914;-69
2023/07/12 11:17:15;;;;;;;9.90;8.93;;;28.40;92.40;;;;;;5010568;28;21072;-69
2023/07/12 11:19:50;;;;;;;10.23;9.43;;;28.40;91.80;;;;;;5011353;28;20550;-69
2023/07/12 11:22:19;;;;;;;9.10;8.23;;;28.60;90.90;;;;;;5011111;28;20450;-68
2023/07/12 11:24:56;;;;;;;9.20;8.37;;;28.70;91.20;;;;;;5011384;28;20484;-67
2023/07/12 11:27:53;;;;;;;8.77;8.17;;;28.80;89.20;;;;;;5017318;28;20460;-68
2023/07/12 11:30:26;;;;;;;8.50;7.80;;;28.80;90.20;;;;;;5008598;28;20457;-68
2023/07/12 11:32:59;;;;;;;8.20;7.40;;;28.80;89.60;;;;;;5025602;28;20531;-70
2023/07/12 11:35:42;;;;;;;6.60;6.10;;;28.80;90.20;;;;;;5016015;28;20450;-68
2023/07/12 11:38:15;;;;;;;7.80;7.30;;;28.80;90.10;;;;;;5023137;28;20448;-69
2023/07/12 11:40:44;;;;;;;7.67;6.87;;;28.80;90.40;;;;;;5013309;28;20457;-69
2023/07/12 11:43:32;;;;;;;7.10;6.63;;;28.70;90.30;;;;;;5030627;28;20453;-69
2023/07/12 11:46:00;;;;;;;7.33;6.73;;;28.70;90.90;;;;;;5015707;28;20453;-69
2023/07/12 11:48:32;;;;;;;8.27;7.77;;;28.70;90.50;;;;;;5023652;28;20445;-69
2023/07/12 11:51:03;;;;;;;8.03;6.97;;;28.80;90.50;;;;;;5017713;28;20488;-68
2023/07/12 11:53:30;;;;;;;6.87;6.40;;;28.90;90.00;;;;;;5027248;28;20475;-71
2023/07/12 11:55:58;;;;;;;8.27;7.60;;;29.00;90.10;;;;;;5016017;28;20459;-69
2023/07/12 11:58:27;;;;;;;7.80;7.20;;;29.00;89.60;;;;;;5016192;28;20461;-69
2023/07/12 12:00:58;;;;;;;7.50;6.90;;;29.00;88.70;;;;;;5013617;28;20825;-69
2023/07/12 12:03:25;;;;;;;7.73;7.10;;;29.00;88.30;;;;;;5025604;28;20542;-69
2023/07/12 12:05:54;;;;;;;8.13;7.63;;;29.00;90.40;;;;;;5022358;28;20462;-70
2023/07/12 12:08:25;;;;;;;6.83;6.33;;;29.10;87.10;;;;;;5012311;28;20508;-68
2023/07/12 12:10:53;;;;;;;7.73;7.13;;;29.20;84.30;;;;;;5019419;28;20478;-69
2023/07/12 12:13:30;;;;;;;5.70;5.40;;;29.30;87.00;;;;;;5026073;28;20559;-69
2023/07/12 12:16:07;;;;;;;5.43;5.07;;;29.50;84.00;;;;;;5017455;28;20468;-68
2023/07/12 12:18:35;;;;;;;5.83;5.43;;;29.70;82.20;;;;;;5027745;28;20461;-69
2023/07/12 12:21:05;;;;;;;6.90;6.30;;;29.70;82.90;;;;;;5016258;28;20463;-68
2023/07/12 12:23:36;;;;;;;6.60;6.20;;;29.60;81.30;;;;;;5020810;28;20466;-69
2023/07/12 12:26:15;;;;;;;5.03;4.60;;;29.60;83.30;;;;;;5013502;28;21042;-69
2023/07/12 12:28:50;;;;;;;5.87;5.33;;;29.60;81.90;;;;;;5019026;28;21017;-68
2023/07/12 12:31:21;;;;;;;5.13;4.83;;;29.60;84.10;;;;;;5021412;28;20579;-69
2023/07/12 12:33:49;;;;;;;4.43;4.03;;;29.60;86.00;;;;;;5033051;28;21368;-68
2023/07/12 12:36:23;;;;;;;5.30;4.80;;;29.40;83.50;;;;;;5021033;28;20463;-68
2023/07/12 12:39:03;;;;;;;4.37;4.10;;;29.20;84.80;;;;;;5033154;28;20451;-72
2023/07/12 12:41:39;;;;;;;3.27;3.07;;;29.10;85.90;;;;;;5023665;28;20876;-69
2023/07/12 12:44:18;;;;;;;3.17;2.97;;;29.10;84.60;;;;;;5028768;28;20480;-70
2023/07/12 12:46:46;;;;;;;2.43;2.33;;;29.10;81.90;;;;;;5024621;28;20465;-69
2023/07/12 12:49:21;;;;;;;3.23;2.93;;;28.90;81.40;;;;;;5030800;28;21035;-69
2023/07/12 12:51:50;;;;;;;3.90;3.70;;;28.90;83.50;;;;;;5030365;28;20491;-70
2023/07/12 12:54:17;;;;;;;3.00;2.80;;;29.00;82.90;;;;;;5033949;28;20476;-69
2023/07/12 12:56:45;;;;;;;2.90;2.80;;;29.10;81.90;;;;;;5033817;28;20859;-68